sensor_id;sensor_type;location;lat;lon;timestamp;pressure;altitude;pressure_sealevel;temperature;humidity
81230;BME280;70701;44.452;18.652;2023-10-31T00:01:47;98327.53;;;19.40;23.81
81230;BME280;70701;44.452;18.652;2023-10-31T00:04:14;98334.22;;;19.49;23.65
81230;BME280;70701;44.452;18.652;2023-10-31T00:06:40;98318.81;;;19.38;23.78
81230;BME280;70701;44.452;18.652;2023-10-31T00:09:06;98326.78;;;19.51;23.30
81230;BME280;70701;44.452;18.652;2023-10-31T00:11:32;98335.50;;;19.59;23.35
81230;BME280;70701;44.452;18.652;2023-10-31T00:13:59;98336.78;;;19.58;23.16
81230;BME280;70701;44.452;18.652;2023-10-31T00:16:24;98341.16;;;19.42;23.82
81230;BME280;70701;44.452;18.652;2023-10-31T00:18:50;98355.53;;;19.50;23.49
81230;BME280;70701;44.452;18.652;2023-10-31T00:21:16;98347.31;;;19.35;23.78
81230;BME280;70701;44.452;18.652;2023-10-31T00:23:48;98335.50;;;19.19;24.20
81230;BME280;70701;44.452;18.652;2023-10-31T00:26:17;98320.38;;;19.06;24.07
81230;BME280;70701;44.452;18.652;2023-10-31T00:28:49;98322.69;;;19.24;24.33
81230;BME280;70701;44.452;18.652;2023-10-31T00:31:15;98328.59;;;19.26;24.44
81230;BME280;70701;44.452;18.652;2023-10-31T00:33:40;98330.38;;;19.18;24.70
81230;BME280;70701;44.452;18.652;2023-10-31T00:36:07;98327.28;;;19.27;24.43
81230;BME280;70701;44.452;18.652;2023-10-31T00:38:33;98316.25;;;19.23;24.52
81230;BME280;70701;44.452;18.652;2023-10-31T00:40:58;98306.78;;;19.32;24.27
81230;BME280;70701;44.452;18.652;2023-10-31T00:43:24;98288.53;;;18.99;24.82
81230;BME280;70701;44.452;18.652;2023-10-31T00:45:50;98296.50;;;19.29;24.25
81230;BME280;70701;44.452;18.652;2023-10-31T00:48:16;98293.91;;;19.42;23.64
81230;BME280;70701;44.452;18.652;2023-10-31T00:50:41;98280.59;;;19.26;23.94
81230;BME280;70701;44.452;18.652;2023-10-31T00:53:07;98281.38;;;19.27;24.05
81230;BME280;70701;44.452;18.652;2023-10-31T00:55:33;98265.47;;;19.12;24.18
81230;BME280;70701;44.452;18.652;2023-10-31T00:57:59;98268.81;;;19.11;24.12
81230;BME280;70701;44.452;18.652;2023-10-31T01:00:25;98273.16;;;19.23;23.55
81230;BME280;70701;44.452;18.652;2023-10-31T01:02:51;98248.28;;;19.10;24.24
81230;BME280;70701;44.452;18.652;2023-10-31T01:05:22;98230.06;;;18.89;24.57
81230;BME280;70701;44.452;18.652;2023-10-31T01:07:48;98198.25;;;18.88;24.08
81230;BME280;70701;44.452;18.652;2023-10-31T01:10:14;98219.56;;;18.83;25.16
81230;BME280;70701;44.452;18.652;2023-10-31T01:12:39;98211.31;;;18.80;25.40
81230;BME280;70701;44.452;18.652;2023-10-31T01:15:06;98209.78;;;18.79;26.69
81230;BME280;70701;44.452;18.652;2023-10-31T01:17:32;98215.16;;;18.71;26.89
81230;BME280;70701;44.452;18.652;2023-10-31T01:19:58;98192.34;;;18.69;26.58
81230;BME280;70701;44.452;18.652;2023-10-31T01:22:24;98199.28;;;18.68;26.59
81230;BME280;70701;44.452;18.652;2023-10-31T01:24:49;98221.84;;;18.74;26.72
81230;BME280;70701;44.452;18.652;2023-10-31T01:27:15;98233.38;;;18.70;27.63
81230;BME280;70701;44.452;18.652;2023-10-31T01:29:40;98235.16;;;18.45;28.69
81230;BME280;70701;44.452;18.652;2023-10-31T01:32:06;98240.72;;;18.22;29.61
81230;BME280;70701;44.452;18.652;2023-10-31T01:34:32;98253.75;;;18.03;30.69
81230;BME280;70701;44.452;18.652;2023-10-31T01:36:58;98242.16;;;17.90;30.96
81230;BME280;70701;44.452;18.652;2023-10-31T01:39:24;98244.66;;;17.76;31.05
81230;BME280;70701;44.452;18.652;2023-10-31T01:41:49;98252.66;;;17.89;30.12
81230;BME280;70701;44.452;18.652;2023-10-31T01:44:15;98252.69;;;17.95;29.73
81230;BME280;70701;44.452;18.652;2023-10-31T01:46:41;98233.75;;;18.01;28.64
81230;BME280;70701;44.452;18.652;2023-10-31T01:49:08;98227.16;;;18.15;28.22
81230;BME280;70701;44.452;18.652;2023-10-31T01:51:33;98211.75;;;18.11;28.67
81230;BME280;70701;44.452;18.652;2023-10-31T01:53:59;98210.50;;;18.17;29.12
81230;BME280;70701;44.452;18.652;2023-10-31T01:56:25;98198.16;;;18.09;28.88
81230;BME280;70701;44.452;18.652;2023-10-31T01:58:52;98196.41;;;18.17;28.06
81230;BME280;70701;44.452;18.652;2023-10-31T02:01:18;98197.16;;;18.18;28.27
81230;BME280;70701;44.452;18.652;2023-10-31T02:03:45;98193.56;;;18.12;28.96
81230;BME280;70701;44.452;18.652;2023-10-31T02:06:10;98192.06;;;18.27;28.67
81230;BME280;70701;44.452;18.652;2023-10-31T02:08:36;98188.44;;;18.10;29.60
81230;BME280;70701;44.452;18.652;2023-10-31T02:11:02;98190.22;;;18.02;29.65
81230;BME280;70701;44.452;18.652;2023-10-31T02:13:29;98188.63;;;17.90;30.27
81230;BME280;70701;44.452;18.652;2023-10-31T02:15:54;98193.28;;;17.93;29.88
81230;BME280;70701;44.452;18.652;2023-10-31T02:18:20;98188.63;;;17.90;30.34
81230;BME280;70701;44.452;18.652;2023-10-31T02:20:46;98193.00;;;17.85;30.46
81230;BME280;70701;44.452;18.652;2023-10-31T02:23:15;98191.16;;;17.82;30.76
81230;BME280;70701;44.452;18.652;2023-10-31T02:25:41;98174.47;;;17.73;31.68
81230;BME280;70701;44.452;18.652;2023-10-31T02:28:06;98168.81;;;17.67;31.62
81230;BME280;70701;44.452;18.652;2023-10-31T02:30:35;98129.81;;;17.43;31.27
81230;BME280;70701;44.452;18.652;2023-10-31T02:33:02;98146.81;;;17.71;30.95
81230;BME280;70701;44.452;18.652;2023-10-31T02:35:28;98150.75;;;17.91;30.19
81230;BME280;70701;44.452;18.652;2023-10-31T02:37:53;98162.78;;;17.91;30.82
81230;BME280;70701;44.452;18.652;2023-10-31T02:40:19;98155.84;;;17.86;30.42
81230;BME280;70701;44.452;18.652;2023-10-31T02:42:45;98156.06;;;17.83;30.72
81230;BME280;70701;44.452;18.652;2023-10-31T02:45:11;98137.19;;;17.95;30.74
81230;BME280;70701;44.452;18.652;2023-10-31T02:47:37;98147.97;;;18.08;30.60
81230;BME280;70701;44.452;18.652;2023-10-31T02:50:03;98153.06;;;18.15;29.13
81230;BME280;70701;44.452;18.652;2023-10-31T02:52:28;98149.78;;;18.27;28.84
81230;BME280;70701;44.452;18.652;2023-10-31T02:54:54;98152.84;;;18.18;28.76
81230;BME280;70701;44.452;18.652;2023-10-31T02:57:20;98144.38;;;18.30;28.58
81230;BME280;70701;44.452;18.652;2023-10-31T02:59:46;98138.25;;;18.31;28.48
81230;BME280;70701;44.452;18.652;2023-10-31T03:02:12;98148.75;;;18.53;27.94
81230;BME280;70701;44.452;18.652;2023-10-31T03:04:38;98148.00;;;18.64;27.36
81230;BME280;70701;44.452;18.652;2023-10-31T03:07:04;98136.97;;;18.49;28.03
81230;BME280;70701;44.452;18.652;2023-10-31T03:09:29;98128.25;;;18.58;28.20
81230;BME280;70701;44.452;18.652;2023-10-31T03:11:55;98110.06;;;18.37;28.66
81230;BME280;70701;44.452;18.652;2023-10-31T03:14:21;98125.69;;;18.43;28.12
81230;BME280;70701;44.452;18.652;2023-10-31T03:16:46;98145.16;;;18.70;27.83
81230;BME280;70701;44.452;18.652;2023-10-31T03:19:12;98146.44;;;18.69;27.92
81230;BME280;70701;44.452;18.652;2023-10-31T03:21:37;98152.84;;;18.69;27.32
81230;BME280;70701;44.452;18.652;2023-10-31T03:24:03;98154.91;;;18.74;27.14
81230;BME280;70701;44.452;18.652;2023-10-31T03:26:30;98150.28;;;18.82;27.86
81230;BME280;70701;44.452;18.652;2023-10-31T03:28:55;98161.56;;;18.94;27.65
81230;BME280;70701;44.452;18.652;2023-10-31T03:31:23;98116.41;;;18.94;26.84
81230;BME280;70701;44.452;18.652;2023-10-31T03:33:49;98131.25;;;19.17;26.65
81230;BME280;70701;44.452;18.652;2023-10-31T03:36:15;98139.72;;;19.17;26.68
81230;BME280;70701;44.452;18.652;2023-10-31T03:38:41;98126.38;;;19.17;26.46
81230;BME280;70701;44.452;18.652;2023-10-31T03:41:07;98138.66;;;19.26;26.77
81230;BME280;70701;44.452;18.652;2023-10-31T03:43:33;98144.06;;;19.23;26.67
81230;BME280;70701;44.452;18.652;2023-10-31T03:45:59;98155.09;;;19.21;27.24
81230;BME280;70701;44.452;18.652;2023-10-31T03:48:25;98147.41;;;19.22;27.57
81230;BME280;70701;44.452;18.652;2023-10-31T03:50:51;98138.66;;;19.26;27.55
81230;BME280;70701;44.452;18.652;2023-10-31T03:53:17;98139.72;;;19.22;27.62
81230;BME280;70701;44.452;18.652;2023-10-31T03:55:44;98133.00;;;19.31;27.03
81230;BME280;70701;44.452;18.652;2023-10-31T03:58:10;98126.06;;;19.32;27.21
81230;BME280;70701;44.452;18.652;2023-10-31T04:00:36;98114.38;;;19.00;29.30
81230;BME280;70701;44.452;18.652;2023-10-31T04:03:02;98111.31;;;18.75;31.11
81230;BME280;70701;44.452;18.652;2023-10-31T04:05:28;98106.22;;;18.45;32.34
81230;BME280;70701;44.452;18.652;2023-10-31T04:07:53;98093.41;;;18.22;32.59
81230;BME280;70701;44.452;18.652;2023-10-31T04:10:19;98077.00;;;18.26;32.89
81230;BME280;70701;44.452;18.652;2023-10-31T04:12:45;98074.16;;;18.15;32.38
81230;BME280;70701;44.452;18.652;2023-10-31T04:15:11;98078.53;;;18.10;32.60
81230;BME280;70701;44.452;18.652;2023-10-31T04:17:37;98066.25;;;18.13;32.94
81230;BME280;70701;44.452;18.652;2023-10-31T04:20:03;98074.16;;;18.20;33.20
81230;BME280;70701;44.452;18.652;2023-10-31T04:22:29;98060.06;;;18.32;31.25
81230;BME280;70701;44.452;18.652;2023-10-31T04:24:55;98075.72;;;18.38;31.84
81230;BME280;70701;44.452;18.652;2023-10-31T04:27:22;98068.25;;;18.63;30.55
81230;BME280;70701;44.452;18.652;2023-10-31T04:29:47;98079.53;;;18.58;31.06
81230;BME280;70701;44.452;18.652;2023-10-31T04:32:13;98087.22;;;18.69;30.95
81230;BME280;70701;44.452;18.652;2023-10-31T04:34:39;98099.25;;;18.92;30.16
81230;BME280;70701;44.452;18.652;2023-10-31T04:37:05;98058.97;;;18.80;30.02
81230;BME280;70701;44.452;18.652;2023-10-31T04:39:31;98081.69;;;19.27;29.10
81230;BME280;70701;44.452;18.652;2023-10-31T04:41:56;98087.28;;;19.38;28.96
81230;BME280;70701;44.452;18.652;2023-10-31T04:44:22;98100.38;;;19.41;28.47
81230;BME280;70701;44.452;18.652;2023-10-31T04:46:48;98106.72;;;19.53;28.42
81230;BME280;70701;44.452;18.652;2023-10-31T04:49:14;98109.69;;;19.78;28.14
81230;BME280;70701;44.452;18.652;2023-10-31T04:51:40;98120.91;;;20.31;27.71
81230;BME280;70701;44.452;18.652;2023-10-31T04:54:06;98116.28;;;20.33;28.53
81230;BME280;70701;44.452;18.652;2023-10-31T04:56:33;98110.59;;;20.69;28.24
81230;BME280;70701;44.452;18.652;2023-10-31T04:58:59;98120.47;;;20.87;28.10
81230;BME280;70701;44.452;18.652;2023-10-31T05:01:24;98105.06;;;20.83;28.36
81230;BME280;70701;44.452;18.652;2023-10-31T05:03:50;98110.13;;;20.59;29.20
81230;BME280;70701;44.452;18.652;2023-10-31T05:06:22;98084.88;;;20.37;29.72
81230;BME280;70701;44.452;18.652;2023-10-31T05:08:49;98068.38;;;20.41;29.82
81230;BME280;70701;44.452;18.652;2023-10-31T05:11:17;98048.06;;;20.43;29.95
81230;BME280;70701;44.452;18.652;2023-10-31T05:13:44;98085.81;;;20.45;30.04
81230;BME280;70701;44.452;18.652;2023-10-31T05:16:10;98088.66;;;20.45;30.20
81230;BME280;70701;44.452;18.652;2023-10-31T05:18:37;98082.47;;;20.47;30.33
81230;BME280;70701;44.452;18.652;2023-10-31T05:21:04;98073.63;;;20.31;30.67
81230;BME280;70701;44.452;18.652;2023-10-31T05:23:29;98081.81;;;20.35;30.99
81230;BME280;70701;44.452;18.652;2023-10-31T05:25:55;98083.38;;;20.30;33.97
81230;BME280;70701;44.452;18.652;2023-10-31T05:28:21;98060.28;;;20.26;34.44
81230;BME280;70701;44.452;18.652;2023-10-31T05:30:46;98056.38;;;20.35;35.11
81230;BME280;70701;44.452;18.652;2023-10-31T05:33:15;98052.63;;;20.21;37.01
81230;BME280;70701;44.452;18.652;2023-10-31T05:35:41;98036.13;;;19.95;40.03
81230;BME280;70701;44.452;18.652;2023-10-31T05:38:06;98033.84;;;19.93;40.02
81230;BME280;70701;44.452;18.652;2023-10-31T05:40:32;98044.44;;;19.81;38.42
81230;BME280;70701;44.452;18.652;2023-10-31T05:43:01;98052.50;;;19.60;37.24
81230;BME280;70701;44.452;18.652;2023-10-31T05:45:27;98042.78;;;19.56;38.50
81230;BME280;70701;44.452;18.652;2023-10-31T05:47:53;98038.34;;;19.66;38.10
81230;BME280;70701;44.452;18.652;2023-10-31T05:50:18;98034.56;;;19.58;38.06
81230;BME280;70701;44.452;18.652;2023-10-31T05:52:44;98047.47;;;19.89;38.42
81230;BME280;70701;44.452;18.652;2023-10-31T05:55:10;98043.47;;;19.68;37.87
81230;BME280;70701;44.452;18.652;2023-10-31T05:57:35;98056.34;;;19.63;38.22
81230;BME280;70701;44.452;18.652;2023-10-31T06:00:01;98060.59;;;19.87;39.37
81230;BME280;70701;44.452;18.652;2023-10-31T06:02:26;98066.41;;;20.30;40.12
81230;BME280;70701;44.452;18.652;2023-10-31T06:04:52;98061.22;;;20.04;39.67
81230;BME280;70701;44.452;18.652;2023-10-31T06:07:18;98041.06;;;20.19;39.75
81230;BME280;70701;44.452;18.652;2023-10-31T06:09:44;98024.75;;;20.31;39.48
81230;BME280;70701;44.452;18.652;2023-10-31T06:12:10;98009.50;;;20.15;40.27
81230;BME280;70701;44.452;18.652;2023-10-31T06:14:36;97984.47;;;20.25;40.00
81230;BME280;70701;44.452;18.652;2023-10-31T06:17:02;97980.13;;;20.24;40.52
81230;BME280;70701;44.452;18.652;2023-10-31T06:19:28;97973.56;;;20.34;40.63
81230;BME280;70701;44.452;18.652;2023-10-31T06:21:53;97959.19;;;20.57;41.04
81230;BME280;70701;44.452;18.652;2023-10-31T06:24:19;97958.09;;;20.66;41.16
81230;BME280;70701;44.452;18.652;2023-10-31T06:26:45;97937.84;;;20.62;41.58
81230;BME280;70701;44.452;18.652;2023-10-31T06:29:13;97949.38;;;20.64;42.12
81230;BME280;70701;44.452;18.652;2023-10-31T06:31:38;97969.06;;;20.75;42.05
81230;BME280;70701;44.452;18.652;2023-10-31T06:34:04;97972.25;;;20.66;42.28
81230;BME280;70701;44.452;18.652;2023-10-31T06:36:29;97960.63;;;20.69;42.00
81230;BME280;70701;44.452;18.652;2023-10-31T06:38:55;97974.19;;;20.76;42.04
81230;BME280;70701;44.452;18.652;2023-10-31T06:41:21;97987.88;;;20.72;42.48
81230;BME280;70701;44.452;18.652;2023-10-31T06:43:47;97989.00;;;20.64;42.84
81230;BME280;70701;44.452;18.652;2023-10-31T06:46:13;98000.81;;;20.62;43.23
81230;BME280;70701;44.452;18.652;2023-10-31T06:48:40;97992.66;;;20.53;43.60
81230;BME280;70701;44.452;18.652;2023-10-31T06:51:06;97984.19;;;20.53;43.55
81230;BME280;70701;44.452;18.652;2023-10-31T06:53:31;97993.41;;;20.59;43.67
81230;BME280;70701;44.452;18.652;2023-10-31T06:55:57;97994.75;;;20.52;43.87
81230;BME280;70701;44.452;18.652;2023-10-31T06:58:23;97997.63;;;20.47;43.69
81230;BME280;70701;44.452;18.652;2023-10-31T07:00:48;97977.06;;;20.46;43.91
81230;BME280;70701;44.452;18.652;2023-10-31T07:03:14;97999.69;;;20.46;43.75
81230;BME280;70701;44.452;18.652;2023-10-31T07:05:41;97985.66;;;20.35;44.33
81230;BME280;70701;44.452;18.652;2023-10-31T07:08:07;98001.31;;;20.36;45.23
81230;BME280;70701;44.452;18.652;2023-10-31T07:10:33;97994.34;;;20.43;44.83
81230;BME280;70701;44.452;18.652;2023-10-31T07:12:59;98025.31;;;20.54;44.81
81230;BME280;70701;44.452;18.652;2023-10-31T07:15:25;98028.50;;;20.45;45.05
81230;BME280;70701;44.452;18.652;2023-10-31T07:17:51;98019.41;;;20.27;46.35
81230;BME280;70701;44.452;18.652;2023-10-31T07:20:17;98032.31;;;20.23;48.13
81230;BME280;70701;44.452;18.652;2023-10-31T07:22:43;98031.03;;;20.24;48.47
81230;BME280;70701;44.452;18.652;2023-10-31T07:25:09;98024.16;;;20.13;48.74
81230;BME280;70701;44.452;18.652;2023-10-31T07:27:35;98024.72;;;20.06;48.43
81230;BME280;70701;44.452;18.652;2023-10-31T07:30:04;98010.81;;;20.08;47.88
81230;BME280;70701;44.452;18.652;2023-10-31T07:32:31;98032.09;;;20.15;48.06
81230;BME280;70701;44.452;18.652;2023-10-31T07:34:57;98014.63;;;20.16;48.09
81230;BME280;70701;44.452;18.652;2023-10-31T07:37:23;98007.75;;;20.06;47.92
81230;BME280;70701;44.452;18.652;2023-10-31T07:39:48;98011.91;;;20.05;47.10
81230;BME280;70701;44.452;18.652;2023-10-31T07:42:16;97997.53;;;20.03;47.55
81230;BME280;70701;44.452;18.652;2023-10-31T07:44:44;97996.59;;;20.19;46.62
81230;BME280;70701;44.452;18.652;2023-10-31T07:47:10;97976.72;;;20.80;46.55
81230;BME280;70701;44.452;18.652;2023-10-31T07:49:36;97952.53;;;20.54;46.55
81230;BME280;70701;44.452;18.652;2023-10-31T07:52:02;97977.19;;;20.84;46.98
81230;BME280;70701;44.452;18.652;2023-10-31T07:54:32;97959.06;;;21.12;46.93
81230;BME280;70701;44.452;18.652;2023-10-31T07:57:01;97970.41;;;21.12;47.08
81230;BME280;70701;44.452;18.652;2023-10-31T07:59:27;97957.16;;;21.01;47.45
81230;BME280;70701;44.452;18.652;2023-10-31T08:01:55;97947.56;;;21.42;46.66
81230;BME280;70701;44.452;18.652;2023-10-31T08:04:20;97955.47;;;21.49;46.48
81230;BME280;70701;44.452;18.652;2023-10-31T08:06:46;97946.56;;;21.40;46.81
81230;BME280;70701;44.452;18.652;2023-10-31T08:09:11;97946.56;;;21.40;46.74
81230;BME280;70701;44.452;18.652;2023-10-31T08:11:37;97942.00;;;21.36;47.05
81230;BME280;70701;44.452;18.652;2023-10-31T08:14:03;97943.88;;;21.28;46.91
81230;BME280;70701;44.452;18.652;2023-10-31T08:16:29;97921.94;;;21.34;47.27
81230;BME280;70701;44.452;18.652;2023-10-31T08:18:54;97915.00;;;21.68;46.39
81230;BME280;70701;44.452;18.652;2023-10-31T08:21:20;97914.38;;;21.88;45.96
81230;BME280;70701;44.452;18.652;2023-10-31T08:23:45;97933.13;;;21.78;46.37
81230;BME280;70701;44.452;18.652;2023-10-31T08:26:12;97919.81;;;21.73;46.06
81230;BME280;70701;44.452;18.652;2023-10-31T08:28:38;97928.56;;;21.88;45.96
81230;BME280;70701;44.452;18.652;2023-10-31T08:31:04;97920.34;;;21.71;46.58
81230;BME280;70701;44.452;18.652;2023-10-31T08:33:30;97912.94;;;21.68;46.73
81230;BME280;70701;44.452;18.652;2023-10-31T08:35:58;97908.03;;;21.69;46.39
81230;BME280;70701;44.452;18.652;2023-10-31T08:38:24;97868.22;;;21.61;45.35
81230;BME280;70701;44.452;18.652;2023-10-31T08:40:49;97882.50;;;21.55;45.93
81230;BME280;70701;44.452;18.652;2023-10-31T08:43:15;97867.78;;;21.57;46.29
81230;BME280;70701;44.452;18.652;2023-10-31T08:45:41;97859.88;;;22.09;45.71
81230;BME280;70701;44.452;18.652;2023-10-31T08:48:06;97863.28;;;22.21;45.58
81230;BME280;70701;44.452;18.652;2023-10-31T08:50:32;97865.47;;;22.28;45.50
81230;BME280;70701;44.452;18.652;2023-10-31T08:52:58;97868.72;;;22.05;45.92
81230;BME280;70701;44.452;18.652;2023-10-31T08:55:23;97881.69;;;21.87;46.46
81230;BME280;70701;44.452;18.652;2023-10-31T08:57:49;97857.50;;;22.13;45.92
81230;BME280;70701;44.452;18.652;2023-10-31T09:00:18;97892.09;;;22.25;46.13
81230;BME280;70701;44.452;18.652;2023-10-31T09:02:46;97878.31;;;21.89;47.00
81230;BME280;70701;44.452;18.652;2023-10-31T09:05:12;97863.81;;;21.79;46.65
81230;BME280;70701;44.452;18.652;2023-10-31T09:07:38;97879.53;;;22.07;46.47
81230;BME280;70701;44.452;18.652;2023-10-31T09:10:04;97883.34;;;22.23;45.84
81230;BME280;70701;44.452;18.652;2023-10-31T09:12:30;97880.75;;;22.38;45.76
81230;BME280;70701;44.452;18.652;2023-10-31T09:14:56;97883.28;;;22.28;46.06
81230;BME280;70701;44.452;18.652;2023-10-31T09:17:22;97880.00;;;22.38;46.23
81230;BME280;70701;44.452;18.652;2023-10-31T09:19:47;97880.00;;;22.38;45.91
81230;BME280;70701;44.452;18.652;2023-10-31T09:22:13;97867.75;;;22.43;45.72
81230;BME280;70701;44.452;18.652;2023-10-31T09:24:38;97876.84;;;22.41;45.92
81230;BME280;70701;44.452;18.652;2023-10-31T09:27:05;97866.47;;;22.30;46.33
81230;BME280;70701;44.452;18.652;2023-10-31T09:29:31;97867.22;;;22.44;46.34
81230;BME280;70701;44.452;18.652;2023-10-31T09:31:56;97868.97;;;22.21;46.92
81230;BME280;70701;44.452;18.652;2023-10-31T09:34:22;97884.97;;;22.05;47.25
81230;BME280;70701;44.452;18.652;2023-10-31T09:36:48;97865.47;;;22.28;47.10
81230;BME280;70701;44.452;18.652;2023-10-31T09:39:13;97869.63;;;22.27;47.32
81230;BME280;70701;44.452;18.652;2023-10-31T09:41:39;97865.44;;;22.14;47.66
81230;BME280;70701;44.452;18.652;2023-10-31T09:44:05;97853.47;;;22.08;47.72
81230;BME280;70701;44.452;18.652;2023-10-31T09:46:31;97852.94;;;22.10;47.26
81230;BME280;70701;44.452;18.652;2023-10-31T09:48:57;97845.38;;;22.66;46.12
81230;BME280;70701;44.452;18.652;2023-10-31T09:51:22;97818.16;;;22.70;45.69
81230;BME280;70701;44.452;18.652;2023-10-31T09:53:49;97807.63;;;22.92;45.40
81230;BME280;70701;44.452;18.652;2023-10-31T09:56:16;97804.47;;;22.82;45.72
81230;BME280;70701;44.452;18.652;2023-10-31T09:58:42;97817.50;;;22.78;46.19
81230;BME280;70701;44.452;18.652;2023-10-31T10:01:08;97791.50;;;22.87;45.80
81230;BME280;70701;44.452;18.652;2023-10-31T10:03:37;97787.44;;;22.82;45.64
81230;BME280;70701;44.452;18.652;2023-10-31T10:06:04;97787.91;;;22.86;45.90
81230;BME280;70701;44.452;18.652;2023-10-31T10:08:30;97784.47;;;22.88;46.10
81230;BME280;70701;44.452;18.652;2023-10-31T10:10:56;97780.53;;;22.91;46.26
81230;BME280;70701;44.452;18.652;2023-10-31T10:13:23;97791.00;;;22.96;46.16
81230;BME280;70701;44.452;18.652;2023-10-31T10:15:50;97781.88;;;22.90;46.57
81230;BME280;70701;44.452;18.652;2023-10-31T10:18:31;97795.38;;;22.97;46.43
81230;BME280;70701;44.452;18.652;2023-10-31T10:20:59;97798.44;;;22.99;46.56
81230;BME280;70701;44.452;18.652;2023-10-31T10:23:25;97767.75;;;22.98;46.83
81230;BME280;70701;44.452;18.652;2023-10-31T10:25:53;97798.44;;;22.99;46.85
81230;BME280;70701;44.452;18.652;2023-10-31T10:28:18;97789.53;;;23.16;46.73
81230;BME280;70701;44.452;18.652;2023-10-31T10:30:46;97775.09;;;23.14;46.73
81230;BME280;70701;44.452;18.652;2023-10-31T10:33:13;97772.91;;;23.20;46.35
81230;BME280;70701;44.452;18.652;2023-10-31T10:35:38;97767.03;;;23.18;46.35
81230;BME280;70701;44.452;18.652;2023-10-31T10:38:07;97763.25;;;23.23;46.48
81230;BME280;70701;44.452;18.652;2023-10-31T10:40:36;97759.78;;;23.38;45.65
81230;BME280;70701;44.452;18.652;2023-10-31T10:43:05;97756.34;;;23.32;45.66
81230;BME280;70701;44.452;18.652;2023-10-31T10:45:36;97758.69;;;23.41;45.64
81230;BME280;70701;44.452;18.652;2023-10-31T10:48:05;97761.06;;;23.29;46.19
81230;BME280;70701;44.452;18.652;2023-10-31T10:50:36;97742.88;;;23.33;45.98
81230;BME280;70701;44.452;18.652;2023-10-31T10:53:21;97737.59;;;23.37;45.82
81230;BME280;70701;44.452;18.652;2023-10-31T10:55:51;97739.00;;;23.43;45.39
81230;BME280;70701;44.452;18.652;2023-10-31T10:58:34;97723.09;;;23.48;45.61
81230;BME280;70701;44.452;18.652;2023-10-31T11:01:03;97712.31;;;23.46;45.73
81230;BME280;70701;44.452;18.652;2023-10-31T11:03:30;97683.91;;;23.46;45.66
81230;BME280;70701;44.452;18.652;2023-10-31T11:05:57;97685.75;;;23.73;45.15
81230;BME280;70701;44.452;18.652;2023-10-31T11:08:24;97674.59;;;23.75;45.29
81230;BME280;70701;44.452;18.652;2023-10-31T11:10:51;97671.13;;;23.68;45.06
81230;BME280;70701;44.452;18.652;2023-10-31T11:13:17;97655.53;;;23.91;45.04
81230;BME280;70701;44.452;18.652;2023-10-31T11:15:43;97661.97;;;23.91;44.47
81230;BME280;70701;44.452;18.652;2023-10-31T11:18:10;97660.66;;;23.92;44.25
81230;BME280;70701;44.452;18.652;2023-10-31T11:20:36;97668.06;;;23.88;44.60
81230;BME280;70701;44.452;18.652;2023-10-31T11:23:02;97684.88;;;23.85;44.97
81230;BME280;70701;44.452;18.652;2023-10-31T11:25:32;97683.81;;;23.96;44.89
81230;BME280;70701;44.452;18.652;2023-10-31T11:28:14;97689.09;;;23.92;45.26
81230;BME280;70701;44.452;18.652;2023-10-31T11:30:40;97692.53;;;23.98;45.12
81230;BME280;70701;44.452;18.652;2023-10-31T11:33:14;97697.78;;;23.86;45.97
81230;BME280;70701;44.452;18.652;2023-10-31T11:35:40;97701.00;;;23.83;45.92
81230;BME280;70701;44.452;18.652;2023-10-31T11:38:10;97719.44;;;23.90;45.85
81230;BME280;70701;44.452;18.652;2023-10-31T11:40:46;97713.25;;;23.78;45.48
81230;BME280;70701;44.452;18.652;2023-10-31T11:43:23;97710.88;;;23.82;45.39
81230;BME280;70701;44.452;18.652;2023-10-31T11:45:48;97701.94;;;23.57;45.82
81230;BME280;70701;44.452;18.652;2023-10-31T11:48:15;97704.47;;;23.68;44.84
81230;BME280;70701;44.452;18.652;2023-10-31T11:50:41;97675.66;;;23.64;45.11
81230;BME280;70701;44.452;18.652;2023-10-31T11:53:16;97670.09;;;23.51;45.45
81230;BME280;70701;44.452;18.652;2023-10-31T11:55:46;97670.41;;;23.76;45.27
81230;BME280;70701;44.452;18.652;2023-10-31T12:01:02;97657.47;;;23.96;44.73
81230;BME280;70701;44.452;18.652;2023-10-31T12:03:42;97639.81;;;23.90;46.47
81230;BME280;70701;44.452;18.652;2023-10-31T12:06:09;97649.91;;;24.06;45.32
81230;BME280;70701;44.452;18.652;2023-10-31T12:08:39;97656.75;;;24.11;45.64
81230;BME280;70701;44.452;18.652;2023-10-31T12:11:13;97652.81;;;24.21;45.30
81230;BME280;70701;44.452;18.652;2023-10-31T12:13:41;97639.16;;;24.28;45.14
81230;BME280;70701;44.452;18.652;2023-10-31T12:16:10;97648.31;;;24.49;44.07
81230;BME280;70701;44.452;18.652;2023-10-31T12:18:38;97656.66;;;24.47;43.85
81230;BME280;70701;44.452;18.652;2023-10-31T12:21:07;97677.53;;;24.42;44.15
81230;BME280;70701;44.452;18.652;2023-10-31T12:23:39;97667.09;;;24.44;44.26
81230;BME280;70701;44.452;18.652;2023-10-31T12:26:05;97673.31;;;24.35;45.13
81230;BME280;70701;44.452;18.652;2023-10-31T12:28:31;97671.03;;;24.26;45.09
81230;BME280;70701;44.452;18.652;2023-10-31T12:30:57;97686.25;;;24.44;44.91
81230;BME280;70701;44.452;18.652;2023-10-31T12:33:27;97702.00;;;24.45;45.07
81230;BME280;70701;44.452;18.652;2023-10-31T12:35:57;97679.03;;;24.35;44.59
81230;BME280;70701;44.452;18.652;2023-10-31T12:38:25;97700.28;;;24.42;44.62
81230;BME280;70701;44.452;18.652;2023-10-31T12:40:52;97696.63;;;24.26;44.97
81230;BME280;70701;44.452;18.652;2023-10-31T12:43:19;97692.06;;;24.23;45.24
81230;BME280;70701;44.452;18.652;2023-10-31T12:45:46;97701.72;;;24.12;45.81
81230;BME280;70701;44.452;18.652;2023-10-31T12:48:11;97678.81;;;24.25;44.58
81230;BME280;70701;44.452;18.652;2023-10-31T12:50:38;97687.75;;;24.45;42.75